首页
METAR-TAF:

METAR-TAF

机场 :

Needles Airport

Needles, 加利福尼亚州, 美国

纬度: 34-45-58N, 经度: 114-37-24W, 海拔: 300米

当前天气观测

该预报发布于38分钟前的00:56 UTC
风速13节,风向西转西北
温度 16°C
湿度 63%
气压 1004 hPa
能見度: 16.1公里
多云层高于6000英尺
阴天层高于7500英尺
小雨

METAR: KEED 230056Z AUTO 29013KT 10SM -RA BKN060 OVC075 16/09 A2966 RMK AO2 PK WND 27031/0036 LTG DSNT NW TSB22E37 SLP027 P0005 T01560089 $

时间: 18:34 (01:34 UTC)

预报

该预报发布于1小时和53分钟前的23:41 UTC
预报有效从23日的 00点(UTC)到 23日的 24点(UTC)
风速7节,风向南转西南
能見度: 10公里
多云层高于8000英尺, 积雨云.
附近有雷暴
从 23日的 0400点(UTC)
风速6节,风向西
能見度: 10公里
阴天层高于7000英尺
从 23日的 1000点(UTC)
风速6节,风向南转西南
能見度: 10公里
散云层高于25000英尺
从 23日的 1500点(UTC)
风速12节,风向
能見度: 10公里
散云层高于25000英尺

TAF: KEED 222341Z 2300/2324 21007KT P6SM VCTS BKN080CB FM230400 26006KT P6SM OVC070 FM231000 20006KT P6SM SCT250 FM231500 17012KT P6SM SCT250

超过4000个机场的气象观测和天气预报(METAR&TAF报告)。

可查询的气象台以黄色和红色小点在地图上表示。

将鼠标移到小点上方,可查看气象台名称。

然后点击查看天气观测和预报。

如需切换地图:点击带黑十字的绿色按钮放大地图;点击带横线的绿色按钮缩小地图;或者点击绿色箭头查看邻近地区的地图。


METAR-TAF: